History for Boise, ID


Lat: N 43 ° 36 ' 50 '' ( 43.614 ° )
Lon: W 116 ° 12 ' 14 '' ( -116.204 ° )

Elevation: 2847 ft
Data type:
Distance calculator

 
 

Select another date:

« Previous Day   |   Next Day »

Daily Statistics
  Current High Low Average
Temperature - 85.0 °F 55.0 °F 70.0 °F
Dew Point - 37.0 °F 28.0 °F 33.8 °F
Humidity % 35% 18% 25%
Wind Speed - 6.0mph - 3.8mph
Wind Gust - 12.0mph - -
Wind - - East
Pressure - 27.04in 26.96in -
Precipitation 0.00in      

Tabular Data for September 14, 2014
Time Temperature Dew Point Pressure Wind Wind Speed Wind Gust Humidity Hourly Precipitation
04:00 56.0 °F 28.0 °F 27.00in East 0.0mph 3.0mph 34% 0.00in
04:23 56.0 °F 28.0 °F 27.00in East 0.0mph 3.0mph 34% 0.00in
04:33 56.0 °F 28.0 °F 27.00in East 0.0mph 3.0mph 34% 0.00in
04:43 56.0 °F 28.0 °F 27.00in East 0.0mph 3.0mph 34% 0.00in
04:54 56.0 °F 28.0 °F 27.00in East 0.0mph 3.0mph 34% 0.00in
05:01 55.0 °F 28.0 °F 27.00in East 4.0mph 6.0mph 35% 0.00in
05:23 55.0 °F 28.0 °F 27.00in East 4.0mph 6.0mph 35% 0.00in
05:33 55.0 °F 28.0 °F 27.00in East 4.0mph 6.0mph 35% 0.00in
05:43 55.0 °F 28.0 °F 27.00in East 4.0mph 6.0mph 35% 0.00in
05:53 55.0 °F 28.0 °F 27.00in East 4.0mph 6.0mph 35% 0.00in
12:00 75.0 °F 37.0 °F 27.04in ENE 3.0mph 6.0mph 25% 0.00in
12:23 75.0 °F 37.0 °F 27.04in ENE 3.0mph 6.0mph 25% 0.00in
12:32 75.0 °F 37.0 °F 27.04in ENE 3.0mph 6.0mph 25% 0.00in
12:43 75.0 °F 37.0 °F 27.04in ENE 3.0mph 6.0mph 25% 0.00in
12:52 75.0 °F 37.0 °F 27.04in ENE 3.0mph 6.0mph 25% 0.00in
13:01 80.0 °F 37.0 °F 27.02in East 4.0mph 9.0mph 21% 0.00in
13:22 80.0 °F 37.0 °F 27.02in East 4.0mph 9.0mph 21% 0.00in
13:32 80.0 °F 37.0 °F 27.02in East 4.0mph 9.0mph 21% 0.00in
13:42 80.0 °F 37.0 °F 27.02in East 4.0mph 9.0mph 21% 0.00in
13:52 80.0 °F 37.0 °F 27.02in East 4.0mph 9.0mph 21% 0.00in
15:00 83.0 °F 36.0 °F 26.98in ESE 6.0mph 11.0mph 19% 0.00in
15:22 83.0 °F 36.0 °F 26.98in ESE 6.0mph 11.0mph 19% 0.00in
15:34 83.0 °F 36.0 °F 26.98in ESE 6.0mph 11.0mph 19% 0.00in
15:44 83.0 °F 36.0 °F 26.98in ESE 6.0mph 11.0mph 19% 0.00in
15:54 83.0 °F 36.0 °F 26.98in ESE 6.0mph 11.0mph 19% 0.00in
16:01 85.0 °F 37.0 °F 26.96in East 6.0mph 12.0mph 18% 0.00in
16:23 85.0 °F 37.0 °F 26.96in East 6.0mph 12.0mph 18% 0.00in
16:33 85.0 °F 37.0 °F 26.96in East 6.0mph 12.0mph 18% 0.00in
16:43 85.0 °F 37.0 °F 26.96in East 6.0mph 12.0mph 18% 0.00in
16:53 85.0 °F 37.0 °F 26.96in East 6.0mph 12.0mph 18% 0.00in

Powered by the Weather Underground, Inc.